createdAt,value
2022-09-07T00:01:01.987Z,21.36
2022-09-07T00:03:29.936Z,21.37
2022-09-07T00:05:58.141Z,21.29
2022-09-07T00:08:27.693Z,21.24
2022-09-07T00:10:59.892Z,21.19
2022-09-07T00:13:34.528Z,21.19
2022-09-07T00:16:05.917Z,21.15
2022-09-07T00:18:33.736Z,21.12
2022-09-07T00:21:03.247Z,21.08
2022-09-07T00:23:34.222Z,21.05
2022-09-07T00:26:03.350Z,20.96
2022-09-07T00:28:31.605Z,20.92
2022-09-07T00:30:59.510Z,20.89
2022-09-07T00:33:27.502Z,20.89
2022-09-07T00:35:55.128Z,20.83
2022-09-07T00:38:22.146Z,20.87
2022-09-07T00:40:50.636Z,20.85
2022-09-07T00:43:34.874Z,20.79
2022-09-07T00:46:05.363Z,20.79
2022-09-07T00:48:43.265Z,20.77
2022-09-07T00:51:20.663Z,20.74
2022-09-07T00:53:54.369Z,20.82
2022-09-07T00:56:35.844Z,20.76
2022-09-07T00:59:03.727Z,20.70
2022-09-07T01:01:32.151Z,20.83
2022-09-07T01:04:01.978Z,20.79
2022-09-07T01:06:36.850Z,20.73
2022-09-07T01:09:08.808Z,20.78
2022-09-07T01:11:38.211Z,20.80
2022-09-07T01:14:10.230Z,20.78
2022-09-07T01:17:01.932Z,20.78
2022-09-07T01:20:18.614Z,20.73
2022-09-07T01:23:20.729Z,20.58
2022-09-07T01:26:17.614Z,20.62
2022-09-07T01:28:54.525Z,20.74
2022-09-07T01:31:33.778Z,20.84
2022-09-07T01:34:14.742Z,20.93
2022-09-07T01:36:55.666Z,20.99
2022-09-07T01:39:39.582Z,21.06
2022-09-07T01:42:13.087Z,21.11
2022-09-07T01:44:49.882Z,21.11
2022-09-07T01:47:25.579Z,21.10
2022-09-07T01:50:01.463Z,21.12
2022-09-07T01:52:41.045Z,21.14
2022-09-07T01:55:18.869Z,21.18
2022-09-07T01:58:06.021Z,21.18
2022-09-07T02:00:40.309Z,21.15
2022-09-07T02:03:20.541Z,21.14
2022-09-07T02:05:57.596Z,21.09
2022-09-07T02:08:31.751Z,21.08
2022-09-07T02:11:08.710Z,21.11
2022-09-07T02:13:42.266Z,21.09
2022-09-07T02:16:16.649Z,21.08
2022-09-07T02:18:48.381Z,21.07
2022-09-07T02:21:25.011Z,21.07
2022-09-07T02:24:02.301Z,21.05
2022-09-07T02:26:30.466Z,21.03
2022-09-07T02:28:58.005Z,20.89
2022-09-07T02:31:26.522Z,20.85
2022-09-07T02:33:53.465Z,20.90
2022-09-07T02:36:26.561Z,20.93
2022-09-07T02:38:53.753Z,20.96
2022-09-07T02:41:32.786Z,20.97
2022-09-07T02:44:05.453Z,20.92
2022-09-07T02:46:58.807Z,20.61
2022-09-07T02:50:02.491Z,20.50
2022-09-07T02:52:47.094Z,20.58
2022-09-07T02:55:32.833Z,20.63
2022-09-07T02:58:19.319Z,20.64
2022-09-07T03:00:59.286Z,20.66
2022-09-07T03:03:45.934Z,20.68
2022-09-07T03:06:23.332Z,20.67
2022-09-07T03:08:55.178Z,20.57
2022-09-07T03:11:23.316Z,20.45
2022-09-07T03:13:50.261Z,20.16
2022-09-07T03:16:17.470Z,20.16
2022-09-07T03:18:45.769Z,20.06
2022-09-07T03:21:12.623Z,19.81
2022-09-07T03:23:39.769Z,19.64
2022-09-07T03:26:06.653Z,19.67
2022-09-07T03:28:33.666Z,19.30
2022-09-07T03:31:01.750Z,19.33
2022-09-07T03:33:28.727Z,19.43
2022-09-07T03:36:01.621Z,19.54
2022-09-07T03:38:30.286Z,19.69
2022-09-07T03:40:59.987Z,19.81
2022-09-07T03:43:27.535Z,19.90
2022-09-07T03:45:58.911Z,19.94
2022-09-07T03:48:26.551Z,19.91
2022-09-07T03:51:00.964Z,19.79
2022-09-07T03:53:31.154Z,19.81
2022-09-07T03:56:00.715Z,19.90
2022-09-07T03:58:30.618Z,19.98
2022-09-07T04:01:00.598Z,20.04
2022-09-07T04:03:29.843Z,20.12
2022-09-07T04:05:59.926Z,20.18
2022-09-07T04:08:27.985Z,20.15
2022-09-07T04:10:56.017Z,20.10
2022-09-07T04:13:23.397Z,20.03
2022-09-07T04:15:53.788Z,19.76
2022-09-07T04:18:21.718Z,19.80
2022-09-07T04:20:49.329Z,19.74
2022-09-07T04:23:18.712Z,19.79
2022-09-07T04:25:50.066Z,19.85
2022-09-07T04:37:31.925Z,18.56
2022-09-07T04:40:03.958Z,18.57
2022-09-07T04:42:34.968Z,18.66
2022-09-07T04:45:02.545Z,18.56
2022-09-07T04:47:29.566Z,18.70
2022-09-07T04:49:57.242Z,18.89
2022-09-07T04:52:24.639Z,18.83
2022-09-07T04:54:52.475Z,18.81
2022-09-07T04:57:21.135Z,18.88
2022-09-07T04:59:48.910Z,19.03
2022-09-07T05:02:19.160Z,19.19
2022-09-07T05:04:47.355Z,19.36
2022-09-07T05:07:21.204Z,19.34
2022-09-07T05:09:48.341Z,19.19
2022-09-07T05:12:15.374Z,19.33
2022-09-07T05:14:43.866Z,19.40
2022-09-07T05:17:10.809Z,19.57
2022-09-07T05:19:38.477Z,19.59
2022-09-07T05:22:06.401Z,19.66
2022-09-07T05:24:33.500Z,19.86
2022-09-07T05:27:00.438Z,20.54
2022-09-07T05:32:16.386Z,21.96
2022-09-07T05:34:43.354Z,22.08
2022-09-07T05:37:10.598Z,22.25
2022-09-07T05:39:37.645Z,22.96
2022-09-07T05:42:04.731Z,22.73
2022-09-07T05:44:47.405Z,22.63
2022-09-07T05:47:16.033Z,23.04
2022-09-07T05:49:43.117Z,23.79
2022-09-07T05:52:10.505Z,24.79
2022-09-07T05:54:37.705Z,24.60
2022-09-07T05:57:05.455Z,25.33
2022-09-07T06:00:00.340Z,25.44
2022-09-07T06:02:28.810Z,26.57
2022-09-07T06:04:55.900Z,25.83
2022-09-07T06:07:23.541Z,23.62
2022-09-07T06:12:38.013Z,23.92
2022-09-07T06:15:06.382Z,24.14
2022-09-07T06:17:34.898Z,23.67
2022-09-07T06:20:02.708Z,24.39
2022-09-07T06:22:31.206Z,24.74
2022-09-07T06:24:58.483Z,23.98
2022-09-07T06:27:26.664Z,24.79
2022-09-07T06:29:54.105Z,24.27
2022-09-07T06:35:30.766Z,26.58
2022-09-07T06:38:01.212Z,27.64
2022-09-07T06:40:28.970Z,29.37
2022-09-07T06:42:56.054Z,29.95
2022-09-07T06:45:23.792Z,31.19
2022-09-07T06:47:53.915Z,32.28
2022-09-07T06:50:22.155Z,32.90
2022-09-07T06:55:43.833Z,33.27
2022-09-07T06:58:11.865Z,33.95
2022-09-07T07:00:39.074Z,34.32
2022-09-07T07:03:06.330Z,34.83
2022-09-07T07:05:35.314Z,34.86
2022-09-07T07:08:03.123Z,35.03
2022-09-07T07:10:40.583Z,35.75
2022-09-07T07:13:10.661Z,36.46
2022-09-07T07:15:40.912Z,35.69
2022-09-07T07:18:20.401Z,34.15
2022-09-07T07:20:53.840Z,32.60
2022-09-07T07:23:20.822Z,29.76
2022-09-07T07:25:49.182Z,29.44
2022-09-07T07:31:10.423Z,29.44
2022-09-07T07:33:39.453Z,31.37
2022-09-07T07:36:14.802Z,31.40
2022-09-07T07:39:02.508Z,31.64
2022-09-07T07:44:26.435Z,27.46
2022-09-07T07:46:57.282Z,25.94
2022-09-07T07:49:30.385Z,27.02
2022-09-07T07:54:50.907Z,28.80
2022-09-07T07:57:18.235Z,29.74
2022-09-07T07:59:45.669Z,30.26
2022-09-07T08:08:20.233Z,28.59
2022-09-07T08:10:47.405Z,28.37
2022-09-07T08:13:14.694Z,28.62
2022-09-07T08:15:42.370Z,29.13
2022-09-07T08:18:09.734Z,29.89
2022-09-07T08:20:36.765Z,31.07
2022-09-07T08:23:03.671Z,31.62
2022-09-07T08:25:32.616Z,32.22
2022-09-07T08:27:59.819Z,32.97
2022-09-07T08:30:26.770Z,33.32
2022-09-07T08:32:54.116Z,33.60
2022-09-07T08:35:21.107Z,33.58
2022-09-07T08:37:47.933Z,33.94
2022-09-07T08:40:17.518Z,33.88
2022-09-07T08:43:07.666Z,34.75
2022-09-07T08:45:53.291Z,35.11
2022-09-07T09:06:23.757Z,34.00
2022-09-07T09:09:16.279Z,33.14
2022-09-07T09:12:00.194Z,32.84
2022-09-07T09:14:39.387Z,32.68
2022-09-07T09:21:43.712Z,32.27
2022-09-07T09:24:17.678Z,32.28
2022-09-07T09:28:00.945Z,32.27
2022-09-07T09:30:33.277Z,32.58
2022-09-07T09:33:16.794Z,32.65
2022-09-07T09:35:55.264Z,32.91
2022-09-07T09:38:50.597Z,32.48
2022-09-07T09:41:20.671Z,32.90
2022-09-07T09:43:56.831Z,33.46
2022-09-07T09:46:39.375Z,33.87
2022-09-07T09:49:56.530Z,34.01
2022-09-07T10:18:14.222Z,35.66
2022-09-07T10:45:33.986Z,37.78
2022-09-07T10:48:21.113Z,37.61
2022-09-07T10:55:36.727Z,37.77
2022-09-07T10:59:03.390Z,38.31
2022-09-07T11:01:59.608Z,38.45
2022-09-07T11:21:02.466Z,36.13
2022-09-07T11:23:41.022Z,35.48
2022-09-07T11:26:17.423Z,33.77
2022-09-07T11:31:50.832Z,34.04
2022-09-07T11:34:37.830Z,33.83
2022-09-07T11:37:13.925Z,34.33
2022-09-07T11:39:48.421Z,34.93
2022-09-07T11:42:43.160Z,33.92
2022-09-07T11:45:30.428Z,33.15
2022-09-07T11:48:11.226Z,32.78
2022-09-07T11:50:50.526Z,34.18
2022-09-07T11:53:23.063Z,34.36
2022-09-07T11:56:05.777Z,35.52
2022-09-07T11:59:10.852Z,36.44
2022-09-07T12:02:00.407Z,35.18
2022-09-07T12:04:47.679Z,34.64
2022-09-07T12:07:42.213Z,33.82
2022-09-07T12:10:53.810Z,33.19
2022-09-07T12:14:09.638Z,32.98
2022-09-07T12:17:00.425Z,32.43
2022-09-07T12:19:28.596Z,32.04
2022-09-07T12:21:58.235Z,32.08
2022-09-07T12:24:55.015Z,32.05
2022-09-07T12:27:41.308Z,32.00
2022-09-07T12:30:53.974Z,31.77
2022-09-07T12:33:37.485Z,31.53
2022-09-07T12:36:41.333Z,31.48
2022-09-07T12:39:24.695Z,31.41
2022-09-07T12:45:48.690Z,31.53
2022-09-07T12:48:47.878Z,31.37
2022-09-07T12:54:33.765Z,31.13
2022-09-07T12:57:30.218Z,31.11
2022-09-07T13:00:16.081Z,31.01
2022-09-07T13:09:33.893Z,30.72
2022-09-07T13:15:37.611Z,30.66
2022-09-07T13:18:05.710Z,30.84
2022-09-07T13:20:39.166Z,31.01
2022-09-07T13:23:32.110Z,31.20
2022-09-07T13:26:02.133Z,31.05
2022-09-07T13:29:04.801Z,31.26
2022-09-07T13:31:56.230Z,31.40
2022-09-07T13:34:48.075Z,31.08
2022-09-07T13:37:21.562Z,31.06
2022-09-07T13:39:54.133Z,31.10
2022-09-07T13:42:30.028Z,30.93
2022-09-07T13:44:59.980Z,30.93
2022-09-07T13:47:55.830Z,30.75
2022-09-07T13:50:47.365Z,30.75
2022-09-07T13:53:56.364Z,30.70
2022-09-07T13:56:40.162Z,30.46
2022-09-07T13:59:23.610Z,30.42
2022-09-07T14:01:51.778Z,30.47
2022-09-07T14:04:24.932Z,30.47
2022-09-07T14:07:16.597Z,30.51
2022-09-07T14:09:44.152Z,30.48
2022-09-07T14:12:18.718Z,30.50
2022-09-07T14:14:46.224Z,30.36
2022-09-07T14:17:18.610Z,30.29
2022-09-07T14:19:49.462Z,30.35
2022-09-07T14:22:21.259Z,30.32
2022-09-07T14:24:50.566Z,30.32
2022-09-07T14:27:24.693Z,30.37
2022-09-07T14:29:52.509Z,30.35
2022-09-07T14:32:24.860Z,30.32
2022-09-07T14:34:52.062Z,30.19
2022-09-07T14:37:22.298Z,30.06
2022-09-07T14:39:51.974Z,30.17
2022-09-07T14:42:26.212Z,30.10
2022-09-07T14:45:19.962Z,30.09
2022-09-07T14:47:52.167Z,30.04
2022-09-07T14:50:30.887Z,30.04
2022-09-07T14:56:02.806Z,29.68
2022-09-07T14:58:32.492Z,29.78
2022-09-07T15:04:16.905Z,29.43
2022-09-07T15:09:37.818Z,29.13
2022-09-07T15:12:27.152Z,29.21
2022-09-07T15:14:58.585Z,29.26
2022-09-07T15:17:48.126Z,29.32
2022-09-07T15:20:34.800Z,29.30
2022-09-07T15:23:03.927Z,29.27
2022-09-07T15:25:32.590Z,29.31
2022-09-07T15:27:59.902Z,29.35
2022-09-07T15:30:33.363Z,29.28
2022-09-07T15:33:00.460Z,29.39
2022-09-07T15:35:27.725Z,29.29
2022-09-07T15:38:03.198Z,29.35
2022-09-07T15:41:03.832Z,29.28
2022-09-07T15:43:29.432Z,29.15
2022-09-07T15:45:57.724Z,29.11
2022-09-07T15:48:26.152Z,28.98
2022-09-07T15:51:03.817Z,28.91
2022-09-07T15:56:24.011Z,28.92
2022-09-07T15:58:55.933Z,28.93
2022-09-07T16:04:15.768Z,28.83
2022-09-07T16:06:42.742Z,28.92
2022-09-07T16:09:11.682Z,28.92
2022-09-07T16:11:39.067Z,28.92
2022-09-07T16:14:10.156Z,28.95
2022-09-07T16:19:29.446Z,28.69
2022-09-07T16:21:57.782Z,28.74
2022-09-07T16:24:26.016Z,28.66
2022-09-07T16:26:54.515Z,28.66
2022-09-07T16:29:23.341Z,28.57
2022-09-07T16:34:51.246Z,28.20
2022-09-07T16:37:18.885Z,28.14
2022-09-07T16:39:45.649Z,28.07
2022-09-07T16:42:13.014Z,27.92
2022-09-07T16:44:40.132Z,27.99
2022-09-07T16:47:08.606Z,27.92
2022-09-07T16:49:35.702Z,28.04
2022-09-07T16:52:03.154Z,28.05
2022-09-07T16:54:32.632Z,28.12
2022-09-07T16:56:59.671Z,28.12
2022-09-07T16:59:26.485Z,28.14
2022-09-07T17:01:53.942Z,28.18
2022-09-07T17:04:22.556Z,28.11
2022-09-07T17:06:49.511Z,28.01
2022-09-07T17:09:16.455Z,27.99
2022-09-07T17:11:43.517Z,27.84
2022-09-07T17:14:10.456Z,27.81
2022-09-07T17:16:40.450Z,27.73
2022-09-07T17:21:59.086Z,27.56
2022-09-07T17:24:25.962Z,27.52
2022-09-07T17:26:52.847Z,27.34
2022-09-07T17:29:21.642Z,27.32
2022-09-07T17:34:37.155Z,27.03
2022-09-07T17:37:09.105Z,26.93
2022-09-07T17:39:39.669Z,26.86
2022-09-07T17:42:21.296Z,26.72
2022-09-07T17:44:57.206Z,26.61
2022-09-07T17:47:46.881Z,26.58
2022-09-07T17:50:14.203Z,26.42
2022-09-07T17:52:46.001Z,26.37
2022-09-07T17:55:13.423Z,26.35
2022-09-07T17:57:40.508Z,26.38
2022-09-07T18:00:11.998Z,26.31
2022-09-07T18:02:39.513Z,26.25
2022-09-07T18:05:07.514Z,26.22
2022-09-07T18:07:35.762Z,26.14
2022-09-07T18:10:04.651Z,26.10
2022-09-07T18:12:32.721Z,26.11
2022-09-07T18:15:00.129Z,26.06
2022-09-07T18:26:01.280Z,26.01
2022-09-07T18:31:25.832Z,25.72
2022-09-07T18:34:03.336Z,25.75
2022-09-07T18:36:35.151Z,25.52
2022-09-07T18:39:50.142Z,25.70
2022-09-07T18:42:31.037Z,25.63
2022-09-07T18:47:54.728Z,25.51
2022-09-07T18:50:22.271Z,25.25
2022-09-07T18:52:53.240Z,25.23
2022-09-07T18:55:20.943Z,25.10
2022-09-07T18:57:49.558Z,24.91
2022-09-07T19:00:17.965Z,24.74
2022-09-07T19:02:50.181Z,24.48
2022-09-07T19:08:06.530Z,24.08
2022-09-07T19:10:34.582Z,23.90
2022-09-07T19:13:09.092Z,24.01
2022-09-07T19:15:40.726Z,23.72
2022-09-07T19:18:13.879Z,23.80
2022-09-07T19:20:41.119Z,23.70
2022-09-07T19:23:08.426Z,23.65
2022-09-07T19:26:59.558Z,23.64
2022-09-07T19:30:25.663Z,23.55
2022-09-07T19:33:29.050Z,23.43
2022-09-07T19:36:18.794Z,23.47
2022-09-07T20:20:38.543Z,23.25
2022-09-07T20:23:05.369Z,23.31
2022-09-07T20:25:32.148Z,23.20
2022-09-07T20:27:59.193Z,23.01
2022-09-07T20:30:26.465Z,23.01
2022-09-07T20:32:53.411Z,22.90
2022-09-07T20:35:23.795Z,23.00
2022-09-07T20:37:53.441Z,22.94
2022-09-07T20:40:20.598Z,22.86
2022-09-07T20:42:47.661Z,22.75
2022-09-07T20:45:14.931Z,22.50
2022-09-07T20:47:58.013Z,22.31
2022-09-07T20:53:16.016Z,22.14
2022-09-07T20:55:43.351Z,22.36
2022-09-07T20:58:10.222Z,22.40
2022-09-07T21:00:37.177Z,22.51
2022-09-07T21:03:04.371Z,22.53
2022-09-07T21:06:53.718Z,22.68
2022-09-07T21:10:39.963Z,22.61
2022-09-07T21:14:10.581Z,22.67
